createdAt,value
2023-01-20T00:00:32.047Z,99647.06
2023-01-20T00:02:59.499Z,99650.13
2023-01-20T00:05:26.847Z,99650.50
2023-01-20T00:07:54.288Z,99649.31
2023-01-20T00:10:22.039Z,99655.53
2023-01-20T00:12:50.743Z,99653.34
2023-01-20T00:15:18.148Z,99657.56
2023-01-20T00:17:45.503Z,99661.03
2023-01-20T00:20:13.637Z,99664.09
2023-01-20T00:22:42.289Z,99666.25
2023-01-20T00:25:10.996Z,99658.41
2023-01-20T00:27:38.477Z,99665.19
2023-01-20T00:30:08.956Z,99670.28
2023-01-20T00:32:39.028Z,99677.16
2023-01-20T00:35:07.576Z,99678.75
2023-01-20T00:37:34.950Z,99680.66
2023-01-20T00:40:02.414Z,99682.91
2023-01-20T00:42:29.930Z,99690.13
2023-01-20T00:44:57.335Z,99693.63
2023-01-20T00:47:26.092Z,99691.50
2023-01-20T00:49:53.450Z,99688.72
2023-01-20T00:52:20.894Z,99699.50
2023-01-20T00:54:48.341Z,99700.50
2023-01-20T00:57:15.777Z,99708.53
2023-01-20T00:59:43.178Z,99709.50
2023-01-20T01:02:10.633Z,99713.78
2023-01-20T01:04:39.354Z,99720.22
2023-01-20T01:07:06.768Z,99724.50
2023-01-20T01:09:34.304Z,99733.22
2023-01-20T01:12:01.671Z,99733.44
2023-01-20T01:14:31.718Z,99743.44
2023-01-20T01:16:59.100Z,99744.09
2023-01-20T01:19:26.687Z,99748.50
2023-01-20T01:21:55.348Z,99746.50
2023-01-20T01:24:22.684Z,99765.63
2023-01-20T01:29:41.521Z,99767.28
2023-01-20T01:32:09.132Z,99757.34
2023-01-20T01:34:36.509Z,99758.53
2023-01-20T01:37:05.213Z,99768.97
2023-01-20T01:39:32.589Z,99766.22
2023-01-20T01:41:59.933Z,99764.88
2023-01-20T01:44:28.165Z,99771.22
2023-01-20T01:46:55.541Z,99763.31
2023-01-20T01:49:25.994Z,99775.94
2023-01-20T01:51:58.802Z,99764.56
2023-01-20T01:54:31.463Z,99768.88
2023-01-20T01:56:58.934Z,99768.25
2023-01-20T01:59:26.401Z,99771.09
2023-01-20T02:01:54.776Z,99775.44
2023-01-20T02:04:23.787Z,99775.34
2023-01-20T02:06:54.218Z,99777.84
2023-01-20T02:09:22.808Z,99782.19
2023-01-20T02:11:54.735Z,99783.59
2023-01-20T02:14:27.468Z,99782.75
2023-01-20T02:17:02.032Z,99782.09
2023-01-20T02:20:07.880Z,99779.44
2023-01-20T02:22:46.642Z,99786.34
2023-01-20T02:25:41.263Z,99782.34
2023-01-20T02:28:50.483Z,99789.88
2023-01-20T02:31:38.499Z,99788.22
2023-01-20T02:34:16.340Z,99789.09
2023-01-20T02:36:48.335Z,99795.06
2023-01-20T02:39:27.646Z,99795.63
2023-01-20T02:42:01.264Z,99793.19
2023-01-20T02:44:38.132Z,99797.81
2023-01-20T02:47:13.624Z,99799.97
2023-01-20T02:49:51.131Z,99808.75
2023-01-20T02:52:23.193Z,99808.00
2023-01-20T02:54:54.522Z,99811.44
2023-01-20T02:57:30.511Z,99815.28
2023-01-20T03:00:03.041Z,99814.69
2023-01-20T03:02:35.316Z,99813.75
2023-01-20T03:05:08.140Z,99816.56
2023-01-20T03:07:38.429Z,99827.16
2023-01-20T03:10:10.644Z,99825.63
2023-01-20T03:12:43.165Z,99827.19
2023-01-20T03:15:12.386Z,99827.53
2023-01-20T03:17:40.252Z,99825.88
2023-01-20T03:20:10.563Z,99836.84
2023-01-20T03:22:38.131Z,99833.47
2023-01-20T03:25:08.104Z,99830.22
2023-01-20T03:27:35.462Z,99840.66
2023-01-20T03:30:02.858Z,99843.41
2023-01-20T03:32:31.390Z,99852.47
2023-01-20T03:35:00.006Z,99852.41
2023-01-20T03:37:29.062Z,99852.88
2023-01-20T03:39:57.911Z,99852.78
2023-01-20T03:42:32.013Z,99856.34
2023-01-20T03:45:06.735Z,99858.41
2023-01-20T03:47:52.573Z,99860.47
2023-01-20T03:50:33.313Z,99864.50
2023-01-20T03:53:08.085Z,99868.38
2023-01-20T03:55:39.217Z,99865.53
2023-01-20T03:58:10.279Z,99872.81
2023-01-20T04:00:40.399Z,99868.81
2023-01-20T04:03:12.608Z,99869.28
2023-01-20T04:05:42.472Z,99874.41
2023-01-20T04:08:13.851Z,99875.28
2023-01-20T04:10:44.317Z,99877.31
2023-01-20T04:13:11.875Z,99883.41
2023-01-20T04:15:44.260Z,99885.47
2023-01-20T04:18:16.082Z,99880.31
2023-01-20T04:20:44.392Z,99880.69
2023-01-20T04:23:20.473Z,99893.78
2023-01-20T04:25:47.864Z,99884.38
2023-01-20T04:28:15.218Z,99879.09
2023-01-20T04:30:42.629Z,99896.28
2023-01-20T04:33:10.105Z,99897.19
2023-01-20T04:35:37.454Z,99896.66
2023-01-20T04:38:06.430Z,99896.63
2023-01-20T04:40:35.238Z,99902.47
2023-01-20T04:43:02.603Z,99911.31
2023-01-20T04:45:30.005Z,99912.09
2023-01-20T04:47:57.441Z,99901.47
2023-01-20T04:50:24.833Z,99917.09
2023-01-20T04:52:55.889Z,99920.53
2023-01-20T04:55:23.280Z,99918.38
2023-01-20T04:57:51.954Z,99927.53
2023-01-20T05:00:20.604Z,99931.47
2023-01-20T05:02:48.402Z,99927.91
2023-01-20T05:05:16.483Z,99934.28
2023-01-20T05:07:44.026Z,99935.25
2023-01-20T05:10:13.368Z,99943.94
2023-01-20T05:12:41.193Z,99943.81
2023-01-20T05:15:12.555Z,99950.66
2023-01-20T05:17:40.061Z,99948.09
2023-01-20T05:20:08.221Z,99949.66
2023-01-20T05:22:35.577Z,99954.97
2023-01-20T05:25:02.970Z,99956.78
2023-01-20T05:27:30.332Z,99953.34
2023-01-20T05:29:57.706Z,99953.13
2023-01-20T05:32:26.441Z,99957.59
2023-01-20T05:34:53.810Z,99964.78
2023-01-20T05:37:21.186Z,99967.41
2023-01-20T05:39:48.565Z,99970.41
2023-01-20T05:42:16.023Z,99976.50
2023-01-20T05:44:43.409Z,99973.13
2023-01-20T05:47:11.127Z,99975.94
2023-01-20T05:49:39.795Z,99981.97
2023-01-20T05:52:07.509Z,99986.81
2023-01-20T05:54:34.897Z,99984.00
2023-01-20T05:57:04.168Z,99982.44
2023-01-20T05:59:31.609Z,99987.75
2023-01-20T06:01:59.120Z,99992.56
2023-01-20T06:04:26.647Z,99992.09
2023-01-20T06:06:55.379Z,99991.50
2023-01-20T06:09:22.791Z,99988.75
2023-01-20T06:11:51.697Z,99997.81
2023-01-20T06:14:19.087Z,100007.66
2023-01-20T06:16:46.444Z,100005.75
2023-01-20T06:19:13.846Z,100005.94
2023-01-20T06:21:41.224Z,100011.97
2023-01-20T06:24:09.967Z,100009.00
2023-01-20T06:26:37.314Z,100010.84
2023-01-20T06:29:04.704Z,100013.34
2023-01-20T06:31:32.152Z,100020.47
2023-01-20T06:33:59.505Z,100014.38
2023-01-20T06:36:27.027Z,100019.63
2023-01-20T06:38:54.508Z,100023.28
2023-01-20T06:41:23.359Z,100024.16
2023-01-20T06:43:52.172Z,100023.69
2023-01-20T06:46:19.660Z,100031.84
2023-01-20T06:48:47.420Z,100030.59
2023-01-20T06:51:17.519Z,100038.28
2023-01-20T06:53:45.211Z,100037.44
2023-01-20T06:56:14.153Z,100046.34
2023-01-20T06:58:43.108Z,100041.81
2023-01-20T07:01:13.564Z,100050.94
2023-01-20T07:03:42.813Z,100043.69
2023-01-20T07:06:16.899Z,100051.69
2023-01-20T07:08:45.045Z,100059.75
2023-01-20T07:11:12.664Z,100062.44
2023-01-20T07:13:40.030Z,100062.34
2023-01-20T07:16:12.018Z,100061.47
2023-01-20T07:18:41.178Z,100067.72
2023-01-20T07:21:08.459Z,100077.44
2023-01-20T07:23:35.802Z,100076.63
2023-01-20T07:26:05.676Z,100084.84
2023-01-20T07:28:34.088Z,100091.44
2023-01-20T07:31:04.669Z,100101.84
2023-01-20T07:33:33.809Z,100106.53
2023-01-20T07:36:01.885Z,100110.75
2023-01-20T07:38:29.573Z,100109.38
2023-01-20T07:40:58.306Z,100114.31
2023-01-20T07:43:26.304Z,100121.09
2023-01-20T07:45:55.497Z,100127.72
2023-01-20T07:48:22.962Z,100133.88
2023-01-20T07:51:01.795Z,100134.94
2023-01-20T07:53:29.325Z,100137.66
2023-01-20T07:55:56.761Z,100141.22
2023-01-20T07:58:24.137Z,100139.09
2023-01-20T08:00:51.536Z,100148.47
2023-01-20T08:03:18.941Z,100146.50
2023-01-20T08:05:46.350Z,100152.22
2023-01-20T08:08:15.117Z,100155.03
2023-01-20T08:10:42.485Z,100145.94
2023-01-20T08:13:09.881Z,100153.06
2023-01-20T08:15:37.248Z,100154.09
2023-01-20T08:18:05.092Z,100160.50
2023-01-20T08:20:32.462Z,100160.97
2023-01-20T08:22:59.813Z,100160.78
2023-01-20T08:25:28.491Z,100167.53
2023-01-20T08:27:55.891Z,100170.28
2023-01-20T08:30:23.593Z,100172.81
2023-01-20T08:32:50.985Z,100174.38
2023-01-20T08:35:18.412Z,100184.75
2023-01-20T08:37:45.796Z,100189.94
2023-01-20T08:40:13.845Z,100192.34
2023-01-20T08:42:42.410Z,100196.88
2023-01-20T08:45:10.688Z,100199.50
2023-01-20T08:47:38.853Z,100200.50
2023-01-20T08:50:08.091Z,100206.84
2023-01-20T08:52:35.472Z,100210.88
2023-01-20T08:55:03.201Z,100203.44
2023-01-20T08:57:30.697Z,100209.72
2023-01-20T08:59:59.454Z,100207.16
2023-01-20T09:02:26.897Z,100206.00
2023-01-20T09:04:54.526Z,100209.06
2023-01-20T09:07:22.147Z,100210.03
2023-01-20T09:09:49.521Z,100218.84
2023-01-20T09:12:16.893Z,100224.00
2023-01-20T09:14:44.316Z,100222.81
2023-01-20T09:17:14.596Z,100234.78
2023-01-20T09:19:41.996Z,100222.84
2023-01-20T09:22:09.393Z,100234.47
2023-01-20T09:24:36.774Z,100231.44
2023-01-20T09:27:04.517Z,100235.13
2023-01-20T09:29:32.004Z,100230.47
2023-01-20T09:31:59.530Z,100236.19
2023-01-20T09:34:29.754Z,100244.50
2023-01-20T09:37:18.919Z,100240.84
2023-01-20T09:40:03.904Z,100238.59
2023-01-20T09:42:59.736Z,100247.09
2023-01-20T09:45:35.931Z,100241.47
2023-01-20T09:48:27.070Z,100238.69
2023-01-20T09:51:22.322Z,100238.44
2023-01-20T09:54:00.187Z,100241.47
2023-01-20T09:56:28.790Z,100241.81
2023-01-20T09:59:02.137Z,100247.06
2023-01-20T10:01:35.041Z,100245.59
2023-01-20T10:04:10.496Z,100243.06
2023-01-20T10:06:43.510Z,100246.13
2023-01-20T10:09:21.197Z,100255.50
2023-01-20T10:11:51.827Z,100249.56
2023-01-20T10:14:26.234Z,100246.69
2023-01-20T10:16:58.803Z,100252.56
2023-01-20T10:19:34.520Z,100249.09
2023-01-20T10:22:12.789Z,100249.72
2023-01-20T10:24:47.572Z,100256.41
2023-01-20T10:27:14.933Z,100249.72
2023-01-20T10:29:45.926Z,100245.28
2023-01-20T10:32:32.836Z,100254.25
2023-01-20T10:35:04.715Z,100252.72
2023-01-20T10:37:33.650Z,100261.47
2023-01-20T10:40:14.292Z,100261.16
2023-01-20T10:42:43.711Z,100261.38
2023-01-20T10:45:20.728Z,100255.16
2023-01-20T10:48:01.158Z,100259.66
2023-01-20T10:50:41.002Z,100254.53
2023-01-20T10:53:21.685Z,100261.25
2023-01-20T10:56:04.642Z,100268.28
2023-01-20T10:58:35.003Z,100267.75
2023-01-20T11:01:06.867Z,100269.91
2023-01-20T11:03:38.081Z,100269.66
2023-01-20T11:06:07.271Z,100279.94
2023-01-20T11:08:36.102Z,100281.34
2023-01-20T11:11:12.219Z,100281.00
2023-01-20T11:13:39.616Z,100283.06
2023-01-20T11:16:14.935Z,100285.97
2023-01-20T11:18:42.380Z,100284.31
2023-01-20T11:21:13.502Z,100277.84
2023-01-20T11:23:49.239Z,100290.63
2023-01-20T11:26:22.271Z,100288.75
2023-01-20T11:28:53.608Z,100289.88
2023-01-20T11:31:22.741Z,100289.25
2023-01-20T11:33:58.627Z,100298.72
2023-01-20T11:36:26.920Z,100294.28
2023-01-20T11:38:57.199Z,100296.94
2023-01-20T11:41:26.714Z,100298.69
2023-01-20T11:43:56.340Z,100302.25
2023-01-20T11:46:30.409Z,100302.53
2023-01-20T11:49:15.180Z,100308.41
2023-01-20T11:51:48.643Z,100319.00
2023-01-20T11:54:19.619Z,100319.66
2023-01-20T11:56:50.009Z,100329.53
2023-01-20T11:59:24.221Z,100324.56
2023-01-20T12:01:58.087Z,100332.50
2023-01-20T12:04:50.658Z,100329.00
2023-01-20T12:07:25.094Z,100334.13
2023-01-20T12:09:56.735Z,100339.38
2023-01-20T12:12:29.958Z,100339.78
2023-01-20T12:15:03.595Z,100344.00
2023-01-20T12:17:46.632Z,100344.66
2023-01-20T12:20:20.485Z,100348.53
2023-01-20T12:23:00.186Z,100356.50
2023-01-20T12:25:31.361Z,100345.00
2023-01-20T12:28:04.863Z,100358.16
2023-01-20T12:30:45.350Z,100354.09
2023-01-20T12:33:20.597Z,100357.66
2023-01-20T12:36:06.386Z,100360.06
2023-01-20T12:38:42.385Z,100361.63
2023-01-20T12:41:18.206Z,100368.72
2023-01-20T12:43:57.469Z,100372.22
2023-01-20T12:46:34.804Z,100372.97
2023-01-20T12:49:22.429Z,100374.47
2023-01-20T12:52:04.171Z,100382.47
2023-01-20T12:54:48.854Z,100375.63
2023-01-20T12:57:26.881Z,100380.16
2023-01-20T13:00:07.577Z,100385.13
2023-01-20T13:02:52.710Z,100389.25
2023-01-20T13:05:39.334Z,100392.09
2023-01-20T13:08:18.431Z,100392.22
2023-01-20T13:10:54.179Z,100400.31
2023-01-20T13:13:55.770Z,100398.34
2023-01-20T13:16:32.511Z,100397.13
2023-01-20T13:19:07.411Z,100400.44
2023-01-20T13:21:35.506Z,100402.84
2023-01-20T13:24:06.105Z,100403.81
2023-01-20T13:26:36.058Z,100404.13
2023-01-20T13:29:04.931Z,100411.59
2023-01-20T13:31:45.883Z,100407.25
2023-01-20T13:34:36.719Z,100409.88
2023-01-20T13:37:25.353Z,100400.44
2023-01-20T13:39:55.624Z,100412.53
2023-01-20T13:42:29.757Z,100408.91
2023-01-20T13:45:24.445Z,100407.63
2023-01-20T13:47:58.495Z,100409.06
2023-01-20T13:50:29.670Z,100417.13
2023-01-20T13:53:14.460Z,100416.41
2023-01-20T13:55:56.101Z,100419.66
2023-01-20T13:58:25.189Z,100422.09
2023-01-20T14:00:55.956Z,100422.16
2023-01-20T14:03:27.871Z,100423.00
2023-01-20T14:05:57.911Z,100426.47
2023-01-20T14:08:26.651Z,100426.66
2023-01-20T14:11:06.149Z,100430.31
2023-01-20T14:13:33.536Z,100429.72
2023-01-20T14:16:02.296Z,100435.34
2023-01-20T14:18:29.957Z,100438.91
2023-01-20T14:21:01.631Z,100451.00
2023-01-20T14:23:36.621Z,100442.88
2023-01-20T14:26:07.397Z,100451.31
2023-01-20T14:28:36.277Z,100462.22
2023-01-20T14:31:18.411Z,100451.44
2023-01-20T14:33:48.494Z,100462.03
2023-01-20T14:36:17.924Z,100467.59
2023-01-20T14:38:57.347Z,100470.59
2023-01-20T14:41:28.072Z,100472.81
2023-01-20T14:43:55.558Z,100473.66
2023-01-20T14:46:25.467Z,100477.81
2023-01-20T14:48:54.631Z,100476.97
2023-01-20T14:51:26.195Z,100481.22
2023-01-20T14:54:31.924Z,100486.91
2023-01-20T14:57:00.660Z,100491.78
2023-01-20T14:59:28.111Z,100505.34
2023-01-20T15:02:03.245Z,100511.84
2023-01-20T15:04:36.567Z,100515.34
2023-01-20T15:07:05.386Z,100516.47
2023-01-20T15:09:34.611Z,100523.16
2023-01-20T15:12:35.297Z,100526.13
2023-01-20T15:15:14.705Z,100532.84
2023-01-20T15:18:19.037Z,100539.03
2023-01-20T15:20:49.631Z,100535.34
2023-01-20T15:23:21.190Z,100541.94
2023-01-20T15:25:49.604Z,100534.94
2023-01-20T15:28:30.537Z,100534.03
2023-01-20T15:30:59.852Z,100532.53
2023-01-20T15:33:28.627Z,100545.72
2023-01-20T15:35:58.430Z,100548.13
2023-01-20T15:38:28.501Z,100554.59
2023-01-20T15:40:55.859Z,100551.81
2023-01-20T15:43:23.620Z,100553.53
2023-01-20T15:45:51.000Z,100551.09
2023-01-20T15:48:20.898Z,100551.00
2023-01-20T15:50:49.885Z,100553.53
2023-01-20T15:53:17.295Z,100561.63
2023-01-20T15:55:49.861Z,100561.06
2023-01-20T15:58:23.657Z,100564.63
2023-01-20T16:00:54.903Z,100570.34
2023-01-20T16:03:22.752Z,100563.72
2023-01-20T16:05:52.797Z,100571.06
2023-01-20T16:08:21.976Z,100570.38
2023-01-20T16:10:49.518Z,100575.63
2023-01-20T16:13:17.335Z,100582.03
2023-01-20T16:15:44.775Z,100578.09
2023-01-20T16:18:15.334Z,100590.09
2023-01-20T16:20:44.225Z,100588.31
2023-01-20T16:23:14.380Z,100597.19
2023-01-20T16:25:41.891Z,100596.69
2023-01-20T16:28:14.973Z,100600.25
2023-01-20T16:30:43.045Z,100602.97
2023-01-20T16:33:18.193Z,100602.50
2023-01-20T16:35:45.660Z,100600.59
2023-01-20T16:38:16.583Z,100601.25
2023-01-20T16:40:48.505Z,100617.22
2023-01-20T16:43:19.092Z,100617.22
2023-01-20T16:45:50.474Z,100628.59
2023-01-20T16:48:17.844Z,100631.81
2023-01-20T16:50:45.308Z,100631.75
2023-01-20T16:53:14.904Z,100640.34
2023-01-20T16:55:44.684Z,100637.38
2023-01-20T16:58:12.293Z,100648.97
2023-01-20T17:00:40.686Z,100652.50
2023-01-20T17:03:08.191Z,100650.94
2023-01-20T17:05:35.928Z,100665.84
2023-01-20T17:08:03.321Z,100664.69
2023-01-20T17:10:33.201Z,100665.91
2023-01-20T17:13:00.711Z,100662.50
2023-01-20T17:15:28.990Z,100668.19
2023-01-20T17:18:00.156Z,100665.13
2023-01-20T17:20:28.301Z,100670.13
2023-01-20T17:22:56.031Z,100677.75
2023-01-20T17:25:23.798Z,100680.06
2023-01-20T17:27:52.529Z,100671.78
2023-01-20T17:30:19.950Z,100676.97
2023-01-20T17:32:48.518Z,100679.81
2023-01-20T17:35:16.842Z,100674.19
2023-01-20T17:37:44.737Z,100683.81
2023-01-20T17:40:13.582Z,100687.63
2023-01-20T17:42:41.086Z,100687.66
2023-01-20T17:45:11.624Z,100694.72
2023-01-20T17:47:38.990Z,100698.81
2023-01-20T17:50:10.122Z,100704.41
2023-01-20T17:52:37.540Z,100706.63
2023-01-20T17:55:05.237Z,100706.53
2023-01-20T17:57:32.614Z,100701.59
2023-01-20T18:00:00.081Z,100699.34
2023-01-20T18:02:29.059Z,100710.72
2023-01-20T18:04:56.538Z,100710.53
2023-01-20T18:07:23.920Z,100708.84
2023-01-20T18:09:51.501Z,100713.03
2023-01-20T18:12:20.453Z,100709.28
2023-01-20T18:14:47.901Z,100721.69
2023-01-20T18:17:15.283Z,100726.78
2023-01-20T18:19:43.976Z,100725.97
2023-01-20T18:22:15.048Z,100728.78
2023-01-20T18:24:42.900Z,100730.28
2023-01-20T18:27:10.350Z,100732.00
2023-01-20T18:29:37.771Z,100729.00
2023-01-20T18:32:05.467Z,100728.78
2023-01-20T18:34:32.827Z,100734.53
2023-01-20T18:37:02.210Z,100735.00
2023-01-20T18:39:30.463Z,100734.19
2023-01-20T18:41:57.828Z,100738.75
2023-01-20T18:44:25.399Z,100735.97
2023-01-20T18:46:52.785Z,100735.97
2023-01-20T18:49:20.289Z,100744.06
2023-01-20T18:51:48.045Z,100752.00
2023-01-20T18:54:20.771Z,100747.72
2023-01-20T18:56:48.350Z,100749.28
2023-01-20T18:59:15.885Z,100742.69
2023-01-20T19:01:43.405Z,100751.91
2023-01-20T19:04:13.251Z,100753.59
2023-01-20T19:06:42.520Z,100755.28
2023-01-20T19:09:10.705Z,100759.44
2023-01-20T19:11:41.959Z,100757.84
2023-01-20T19:14:11.892Z,100758.31
2023-01-20T19:16:42.247Z,100760.84
2023-01-20T19:19:10.915Z,100756.53
2023-01-20T19:21:38.369Z,100758.69
2023-01-20T19:24:07.865Z,100761.41
2023-01-20T19:26:37.105Z,100754.09
2023-01-20T19:29:07.820Z,100764.63
2023-01-20T19:31:37.386Z,100756.88
2023-01-20T19:34:05.223Z,100758.31
2023-01-20T19:36:33.500Z,100755.91
2023-01-20T19:39:01.330Z,100756.25
2023-01-20T19:41:33.169Z,100757.75
2023-01-20T19:44:03.005Z,100760.06
2023-01-20T19:46:34.009Z,100760.69
2023-01-20T19:49:03.064Z,100769.72
2023-01-20T19:51:31.678Z,100765.16
2023-01-20T19:54:01.557Z,100779.84
2023-01-20T19:56:30.756Z,100781.59
2023-01-20T19:59:00.537Z,100779.94
2023-01-20T20:01:31.544Z,100787.84
2023-01-20T20:04:06.235Z,100794.00
2023-01-20T20:06:34.952Z,100793.81
2023-01-20T20:09:04.223Z,100801.63
2023-01-20T20:11:32.519Z,100795.47
2023-01-20T20:14:01.617Z,100800.88
2023-01-20T20:16:31.209Z,100812.84
2023-01-20T20:19:00.304Z,100812.69
2023-01-20T20:21:28.299Z,100814.31
2023-01-20T20:23:56.573Z,100819.03
2023-01-20T20:26:27.067Z,100819.06
2023-01-20T20:28:54.572Z,100825.38
2023-01-20T20:31:28.739Z,100822.66
2023-01-20T20:33:56.939Z,100819.03
2023-01-20T20:36:25.613Z,100837.69
2023-01-20T20:38:54.049Z,100837.66
2023-01-20T20:41:22.274Z,100830.53
2023-01-20T20:43:49.829Z,100842.06
2023-01-20T20:46:17.408Z,100841.09
2023-01-20T20:48:44.797Z,100849.03
2023-01-20T20:51:14.063Z,100849.91
2023-01-20T20:53:43.695Z,100850.72
2023-01-20T20:56:14.028Z,100846.47
2023-01-20T20:58:59.473Z,100854.34
2023-01-20T21:01:29.385Z,100855.34
2023-01-20T21:03:57.950Z,100854.47
2023-01-20T21:06:26.042Z,100860.75
2023-01-20T21:08:54.816Z,100875.59
2023-01-20T21:11:22.259Z,100866.00
2023-01-20T21:13:49.901Z,100869.19
2023-01-20T21:16:21.783Z,100871.00
2023-01-20T21:18:49.918Z,100875.41
2023-01-20T21:21:18.273Z,100874.38
2023-01-20T21:23:49.018Z,100872.59
2023-01-20T21:26:17.618Z,100877.78
2023-01-20T21:28:45.437Z,100878.00
2023-01-20T21:31:14.367Z,100883.16
2023-01-20T21:33:42.448Z,100886.53
2023-01-20T21:36:15.943Z,100886.00
2023-01-20T21:38:45.375Z,100887.44
2023-01-20T21:41:13.470Z,100890.19
2023-01-20T21:44:00.234Z,100884.91
2023-01-20T21:46:28.902Z,100890.41
2023-01-20T21:49:13.893Z,100890.19
2023-01-20T21:51:58.580Z,100886.84
2023-01-20T21:54:27.907Z,100899.50
2023-01-20T21:56:55.501Z,100891.09
2023-01-20T21:59:24.357Z,100891.91
2023-01-20T22:01:51.847Z,100903.19
2023-01-20T22:04:19.441Z,100911.53
2023-01-20T22:06:46.784Z,100902.56
2023-01-20T22:09:14.131Z,100906.88
2023-01-20T22:11:41.373Z,100910.34
2023-01-20T22:14:10.221Z,100913.84
2023-01-20T22:16:38.809Z,100914.97
2023-01-20T22:19:06.107Z,100923.91
2023-01-20T22:21:33.753Z,100924.69
2023-01-20T22:24:02.642Z,100919.38
2023-01-20T22:26:30.039Z,100923.03
2023-01-20T22:28:57.855Z,100935.91
2023-01-20T22:31:25.294Z,100926.28
2023-01-20T22:33:54.507Z,100920.91
2023-01-20T22:36:22.560Z,100919.28
2023-01-20T22:38:50.679Z,100919.66
2023-01-20T22:41:17.982Z,100918.03
2023-01-20T22:43:47.709Z,100917.78
2023-01-20T22:46:15.923Z,100915.94
2023-01-20T22:48:43.500Z,100916.88
2023-01-20T22:51:12.966Z,100916.81
2023-01-20T22:53:40.764Z,100924.88
2023-01-20T22:56:09.309Z,100921.78
2023-01-20T22:58:37.126Z,100928.63
2023-01-20T23:01:04.466Z,100928.56
2023-01-20T23:03:31.972Z,100927.66
2023-01-20T23:06:00.159Z,100927.41
2023-01-20T23:08:30.422Z,100926.56
2023-01-20T23:10:59.989Z,100923.31
2023-01-20T23:13:28.841Z,100922.53
2023-01-20T23:15:56.593Z,100927.72
2023-01-20T23:18:24.282Z,100928.53
2023-01-20T23:20:52.150Z,100925.03
2023-01-20T23:23:20.107Z,100930.50
2023-01-20T23:25:49.127Z,100932.09
2023-01-20T23:28:16.516Z,100936.44
2023-01-20T23:30:44.215Z,100932.34
2023-01-20T23:33:11.749Z,100936.47
2023-01-20T23:35:39.113Z,100939.03
2023-01-20T23:38:06.625Z,100945.13
2023-01-20T23:40:34.301Z,100946.25
2023-01-20T23:43:03.160Z,100942.69
2023-01-20T23:45:30.543Z,100946.91
2023-01-20T23:47:57.937Z,100953.28
2023-01-20T23:50:25.264Z,100951.59
2023-01-20T23:52:52.517Z,100958.59
2023-01-20T23:55:19.830Z,100960.38
2023-01-20T23:57:47.221Z,100956.94
